Terminal Aerodrome Forecast
Issued by NWS

Home | Current Version | Previous Version | Text Only | Print | Product List | Glossary On
Versions: 1 2 3 4 5 6 7 8 9 10 11 12 13 14 15 16 17 18 19 20 21 22 23 24 25 26 27 28 29
433
FTUS43 KDMX 270538
TAFFOD
TAF
KFOD 270538Z 2706/2806 32009G14KT P6SM BKN014 OVC028
     FM271600 30010G16KT P6SM BKN021
     FM271800 29010G16KT P6SM SCT028
     FM280000 30006KT P6SM FEW080
     FM280300 02004KT P6SM FEW230=

USA.gov is the U.S. government's official web portal to all federal, state and local government web resources and services.